Addison, Illinois
Current Conditions -  °F | °C
As of 5:51 PM on Sunday 25 Jan 2015 (Local Time) from KORD Reporting Station
Overcast Overcast  
Wind Chill: 14°   Ceiling: 3500
Heat Index: 26°   Visibility: 10mi
Dew Point: 17°   Wind: 16mph
Humidity: 69%   Direction: 20°NNE
Pressure: 29.94"   Gusts: NA
Location:  41.93°N, 87.99°W
Report Text: KORD 252351Z 02014KT 10SM SCT027 BKN035 OVC055 M03/M08 A2994 RMK AO2 SLP146 4/001 60001 T10331083 11011 21033 51028
Loading
Personal Weather Stations






























Interactive Weather Map New forecast layout! Learn more

10-Day Weather Forecast

Advertisements
Track Severe Weather on mobile